sensor_id;sensor_type;location;lat;lon;timestamp;pressure;altitude;pressure_sealevel;temperature;humidity
53526;BME280;40551;50.478;19.378;2022-09-21T00:00:57;98252.30;;;8.20;79.63
53526;BME280;40551;50.478;19.378;2022-09-21T00:03:34;98252.52;;;8.13;79.83
53526;BME280;40551;50.478;19.378;2022-09-21T00:06:08;98248.93;;;8.10;79.72
53526;BME280;40551;50.478;19.378;2022-09-21T00:08:40;98247.85;;;8.08;79.60
53526;BME280;40551;50.478;19.378;2022-09-21T00:11:13;98249.86;;;8.04;79.95
53526;BME280;40551;50.478;19.378;2022-09-21T00:13:45;98251.84;;;8.03;80.24
53526;BME280;40551;50.478;19.378;2022-09-21T00:16:17;98248.30;;;8.02;80.26
53526;BME280;40551;50.478;19.378;2022-09-21T00:18:47;98249.57;;;8.03;80.32
53526;BME280;40551;50.478;19.378;2022-09-21T00:21:18;98248.05;;;8.00;80.30
53526;BME280;40551;50.478;19.378;2022-09-21T00:23:51;98246.45;;;8.01;80.29
53526;BME280;40551;50.478;19.378;2022-09-21T00:26:25;98250.05;;;8.01;80.38
53526;BME280;40551;50.478;19.378;2022-09-21T00:28:58;98247.25;;;8.02;80.46
53526;BME280;40551;50.478;19.378;2022-09-21T00:31:31;98249.48;;;8.00;80.24
53526;BME280;40551;50.478;19.378;2022-09-21T00:34:04;98246.79;;;7.96;79.99
53526;BME280;40551;50.478;19.378;2022-09-21T00:36:37;98250.08;;;7.94;80.10
53526;BME280;40551;50.478;19.378;2022-09-21T00:39:09;98248.41;;;7.93;80.23
53526;BME280;40551;50.478;19.378;2022-09-21T00:41:41;98247.25;;;7.90;79.95
53526;BME280;40551;50.478;19.378;2022-09-21T00:44:28;98247.39;;;7.85;80.10
53526;BME280;40551;50.478;19.378;2022-09-21T00:47:03;98251.10;;;7.81;80.27
53526;BME280;40551;50.478;19.378;2022-09-21T00:49:38;98252.49;;;7.82;80.45
53526;BME280;40551;50.478;19.378;2022-09-21T00:52:12;98257.90;;;7.78;80.23
53526;BME280;40551;50.478;19.378;2022-09-21T00:54:47;98263.77;;;7.78;80.67
53526;BME280;40551;50.478;19.378;2022-09-21T00:57:23;98262.90;;;7.79;80.69
53526;BME280;40551;50.478;19.378;2022-09-21T00:59:57;98266.14;;;7.76;80.77
53526;BME280;40551;50.478;19.378;2022-09-21T01:02:31;98264.79;;;7.76;80.88
53526;BME280;40551;50.478;19.378;2022-09-21T01:05:08;98265.12;;;7.79;81.13
53526;BME280;40551;50.478;19.378;2022-09-21T01:07:43;98265.28;;;7.84;81.33
53526;BME280;40551;50.478;19.378;2022-09-21T01:10:17;98264.76;;;7.87;81.16
53526;BME280;40551;50.478;19.378;2022-09-21T01:12:59;98266.61;;;7.90;81.34
53526;BME280;40551;50.478;19.378;2022-09-21T01:15:41;98266.83;;;7.91;81.40
53526;BME280;40551;50.478;19.378;2022-09-21T01:18:19;98266.19;;;7.93;81.57
53526;BME280;40551;50.478;19.378;2022-09-21T01:21:18;98267.91;;;7.95;81.60
53526;BME280;40551;50.478;19.378;2022-09-21T01:24:01;98268.92;;;7.98;81.69
53526;BME280;40551;50.478;19.378;2022-09-21T01:26:56;98269.29;;;8.03;81.63
53526;BME280;40551;50.478;19.378;2022-09-21T01:29:33;98272.30;;;8.07;81.76
53526;BME280;40551;50.478;19.378;2022-09-21T01:32:11;98270.27;;;8.11;81.82
53526;BME280;40551;50.478;19.378;2022-09-21T01:34:47;98271.30;;;8.13;81.91
53526;BME280;40551;50.478;19.378;2022-09-21T01:37:23;98275.72;;;8.17;81.85
53526;BME280;40551;50.478;19.378;2022-09-21T01:40:00;98276.76;;;8.19;81.77
53526;BME280;40551;50.478;19.378;2022-09-21T01:42:34;98279.58;;;8.23;81.83
53526;BME280;40551;50.478;19.378;2022-09-21T01:45:11;98279.90;;;8.26;82.01
53526;BME280;40551;50.478;19.378;2022-09-21T01:47:48;98279.20;;;8.27;81.98
53526;BME280;40551;50.478;19.378;2022-09-21T01:50:28;98280.14;;;8.28;82.20
53526;BME280;40551;50.478;19.378;2022-09-21T01:53:04;98286.92;;;8.32;82.01
53526;BME280;40551;50.478;19.378;2022-09-21T01:55:41;98281.19;;;8.35;82.14
53526;BME280;40551;50.478;19.378;2022-09-21T01:58:19;98285.48;;;8.40;82.27
53526;BME280;40551;50.478;19.378;2022-09-21T02:00:55;98284.20;;;8.46;82.17
53526;BME280;40551;50.478;19.378;2022-09-21T02:03:31;98283.63;;;8.50;82.27
53526;BME280;40551;50.478;19.378;2022-09-21T02:06:06;98288.20;;;8.53;82.25
53526;BME280;40551;50.478;19.378;2022-09-21T02:08:38;98291.55;;;8.55;82.20
53526;BME280;40551;50.478;19.378;2022-09-21T02:11:10;98292.34;;;8.58;82.14
53526;BME280;40551;50.478;19.378;2022-09-21T02:13:45;98292.44;;;8.61;82.08
53526;BME280;40551;50.478;19.378;2022-09-21T02:16:29;98292.64;;;8.65;82.15
53526;BME280;40551;50.478;19.378;2022-09-21T02:19:11;98293.23;;;8.69;82.19
53526;BME280;40551;50.478;19.378;2022-09-21T02:21:54;98291.52;;;8.72;82.20
53526;BME280;40551;50.478;19.378;2022-09-21T02:24:34;98294.16;;;8.73;82.16
53526;BME280;40551;50.478;19.378;2022-09-21T02:27:22;98294.44;;;8.77;82.05
53526;BME280;40551;50.478;19.378;2022-09-21T02:30:02;98295.88;;;8.78;81.95
53526;BME280;40551;50.478;19.378;2022-09-21T02:32:42;98296.27;;;8.80;81.79
53526;BME280;40551;50.478;19.378;2022-09-21T02:35:28;98298.74;;;8.77;81.68
53526;BME280;40551;50.478;19.378;2022-09-21T02:38:07;98300.48;;;8.72;81.65
53526;BME280;40551;50.478;19.378;2022-09-21T02:40:45;98301.80;;;8.68;81.83
53526;BME280;40551;50.478;19.378;2022-09-21T02:43:27;98301.33;;;8.68;81.91
53526;BME280;40551;50.478;19.378;2022-09-21T02:46:10;98302.91;;;8.67;81.72
53526;BME280;40551;50.478;19.378;2022-09-21T02:48:47;98304.23;;;8.68;81.85
53526;BME280;40551;50.478;19.378;2022-09-21T02:51:26;98305.42;;;8.71;82.03
53526;BME280;40551;50.478;19.378;2022-09-21T02:54:02;98310.03;;;8.72;81.95
53526;BME280;40551;50.478;19.378;2022-09-21T02:56:34;98314.17;;;8.72;81.95
53526;BME280;40551;50.478;19.378;2022-09-21T02:59:07;98314.14;;;8.70;81.86
53526;BME280;40551;50.478;19.378;2022-09-21T03:01:40;98315.37;;;8.70;81.84
53526;BME280;40551;50.478;19.378;2022-09-21T03:04:11;98316.73;;;8.70;81.88
53526;BME280;40551;50.478;19.378;2022-09-21T03:06:43;98319.92;;;8.71;82.04
53526;BME280;40551;50.478;19.378;2022-09-21T03:09:14;98318.14;;;8.72;82.03
53526;BME280;40551;50.478;19.378;2022-09-21T03:11:45;98314.07;;;8.70;81.95
53526;BME280;40551;50.478;19.378;2022-09-21T03:14:16;98313.61;;;8.62;82.03
53526;BME280;40551;50.478;19.378;2022-09-21T03:16:48;98316.02;;;8.62;82.31
53526;BME280;40551;50.478;19.378;2022-09-21T03:19:19;98318.46;;;8.65;82.33
53526;BME280;40551;50.478;19.378;2022-09-21T03:21:51;98317.21;;;8.65;82.19
53526;BME280;40551;50.478;19.378;2022-09-21T03:24:23;98320.68;;;8.68;82.31
53526;BME280;40551;50.478;19.378;2022-09-21T03:27:13;98321.80;;;8.71;82.47
53526;BME280;40551;50.478;19.378;2022-09-21T03:29:45;98324.80;;;8.71;82.31
53526;BME280;40551;50.478;19.378;2022-09-21T03:32:16;98322.80;;;8.67;82.32
53526;BME280;40551;50.478;19.378;2022-09-21T03:34:48;98326.39;;;8.65;82.42
53526;BME280;40551;50.478;19.378;2022-09-21T03:37:19;98330.76;;;8.62;82.48
53526;BME280;40551;50.478;19.378;2022-09-21T03:39:51;98329.38;;;8.60;82.61
53526;BME280;40551;50.478;19.378;2022-09-21T03:42:22;98330.95;;;8.57;82.70
53526;BME280;40551;50.478;19.378;2022-09-21T03:44:54;98331.41;;;8.55;82.96
53526;BME280;40551;50.478;19.378;2022-09-21T03:47:25;98334.73;;;8.53;83.15
53526;BME280;40551;50.478;19.378;2022-09-21T03:49:58;98338.98;;;8.49;82.97
53526;BME280;40551;50.478;19.378;2022-09-21T03:52:30;98340.95;;;8.48;83.18
53526;BME280;40551;50.478;19.378;2022-09-21T03:55:02;98344.13;;;8.49;83.28
53526;BME280;40551;50.478;19.378;2022-09-21T03:57:36;98343.65;;;8.49;83.23
53526;BME280;40551;50.478;19.378;2022-09-21T04:00:11;98344.36;;;8.49;83.40
53526;BME280;40551;50.478;19.378;2022-09-21T04:02:43;98345.36;;;8.49;83.64
53526;BME280;40551;50.478;19.378;2022-09-21T04:05:15;98348.98;;;8.52;83.62
53526;BME280;40551;50.478;19.378;2022-09-21T04:07:47;98355.08;;;8.53;83.61
53526;BME280;40551;50.478;19.378;2022-09-21T04:10:20;98353.16;;;8.56;83.71
53526;BME280;40551;50.478;19.378;2022-09-21T04:12:59;98354.42;;;8.60;83.65
53526;BME280;40551;50.478;19.378;2022-09-21T04:15:32;98357.01;;;8.62;83.74
53526;BME280;40551;50.478;19.378;2022-09-21T04:18:03;98359.36;;;8.66;83.87
53526;BME280;40551;50.478;19.378;2022-09-21T04:20:35;98358.98;;;8.74;83.93
53526;BME280;40551;50.478;19.378;2022-09-21T04:23:07;98358.48;;;8.80;83.84
53526;BME280;40551;50.478;19.378;2022-09-21T04:25:39;98360.95;;;8.84;83.67
53526;BME280;40551;50.478;19.378;2022-09-21T04:28:11;98359.02;;;8.90;83.80
53526;BME280;40551;50.478;19.378;2022-09-21T04:30:42;98360.87;;;8.93;83.60
53526;BME280;40551;50.478;19.378;2022-09-21T04:33:14;98358.94;;;8.96;83.57
53526;BME280;40551;50.478;19.378;2022-09-21T04:35:45;98357.95;;;8.97;83.69
53526;BME280;40551;50.478;19.378;2022-09-21T04:38:17;98360.48;;;8.98;83.48
53526;BME280;40551;50.478;19.378;2022-09-21T04:40:56;98362.30;;;8.97;83.37
53526;BME280;40551;50.478;19.378;2022-09-21T04:43:27;98366.47;;;8.99;83.48
53526;BME280;40551;50.478;19.378;2022-09-21T04:46:05;98370.14;;;9.01;83.35
53526;BME280;40551;50.478;19.378;2022-09-21T04:48:36;98368.08;;;9.01;83.32
53526;BME280;40551;50.478;19.378;2022-09-21T04:51:09;98370.70;;;9.00;83.36
53526;BME280;40551;50.478;19.378;2022-09-21T04:53:42;98370.35;;;8.98;83.20
53526;BME280;40551;50.478;19.378;2022-09-21T04:56:15;98367.77;;;8.98;83.33
53526;BME280;40551;50.478;19.378;2022-09-21T04:58:47;98369.04;;;8.97;83.11
53526;BME280;40551;50.478;19.378;2022-09-21T05:01:18;98366.48;;;8.97;83.23
53526;BME280;40551;50.478;19.378;2022-09-21T05:03:48;98367.01;;;8.94;83.18
53526;BME280;40551;50.478;19.378;2022-09-21T05:06:20;98369.84;;;8.86;83.13
53526;BME280;40551;50.478;19.378;2022-09-21T05:08:51;98371.73;;;8.84;83.34
53526;BME280;40551;50.478;19.378;2022-09-21T05:11:40;98371.88;;;8.82;83.28
53526;BME280;40551;50.478;19.378;2022-09-21T05:14:12;98374.19;;;8.79;83.24
53526;BME280;40551;50.478;19.378;2022-09-21T05:16:42;98372.45;;;8.79;83.36
53526;BME280;40551;50.478;19.378;2022-09-21T05:19:13;98370.98;;;8.75;83.60
53526;BME280;40551;50.478;19.378;2022-09-21T05:21:45;98375.52;;;8.77;83.81
53526;BME280;40551;50.478;19.378;2022-09-21T05:24:16;98380.17;;;8.80;83.80
53526;BME280;40551;50.478;19.378;2022-09-21T05:26:48;98385.63;;;8.81;83.74
53526;BME280;40551;50.478;19.378;2022-09-21T05:29:21;98385.86;;;8.80;83.60
53526;BME280;40551;50.478;19.378;2022-09-21T05:31:55;98387.10;;;8.79;83.69
53526;BME280;40551;50.478;19.378;2022-09-21T05:34:44;98391.43;;;8.82;83.60
53526;BME280;40551;50.478;19.378;2022-09-21T05:37:37;98392.48;;;8.86;83.87
53526;BME280;40551;50.478;19.378;2022-09-21T05:40:14;98394.29;;;8.88;83.76
53526;BME280;40551;50.478;19.378;2022-09-21T05:45:24;98395.81;;;8.95;83.67
53526;BME280;40551;50.478;19.378;2022-09-21T05:48:02;98393.13;;;8.96;83.67
53526;BME280;40551;50.478;19.378;2022-09-21T05:50:51;98391.76;;;9.01;83.77
53526;BME280;40551;50.478;19.378;2022-09-21T05:53:37;98393.96;;;9.04;83.82
53526;BME280;40551;50.478;19.378;2022-09-21T05:56:13;98393.90;;;9.05;83.91
53526;BME280;40551;50.478;19.378;2022-09-21T05:58:51;98395.83;;;9.07;83.95
53526;BME280;40551;50.478;19.378;2022-09-21T06:01:32;98398.06;;;9.09;83.99
53526;BME280;40551;50.478;19.378;2022-09-21T06:04:02;98393.98;;;9.13;84.01
53526;BME280;40551;50.478;19.378;2022-09-21T06:06:30;98397.52;;;9.17;84.01
53526;BME280;40551;50.478;19.378;2022-09-21T06:08:58;98401.98;;;9.18;83.74
53526;BME280;40551;50.478;19.378;2022-09-21T06:11:26;98405.17;;;9.19;83.79
53526;BME280;40551;50.478;19.378;2022-09-21T06:13:54;98404.26;;;9.20;83.81
53526;BME280;40551;50.478;19.378;2022-09-21T06:16:22;98403.70;;;9.18;83.69
53526;BME280;40551;50.478;19.378;2022-09-21T06:18:50;98405.36;;;9.19;83.70
53526;BME280;40551;50.478;19.378;2022-09-21T06:21:18;98401.31;;;9.20;83.86
53526;BME280;40551;50.478;19.378;2022-09-21T06:23:46;98403.27;;;9.21;83.76
53526;BME280;40551;50.478;19.378;2022-09-21T06:26:14;98404.80;;;9.24;83.93
53526;BME280;40551;50.478;19.378;2022-09-21T06:28:44;98401.99;;;9.27;84.11
53526;BME280;40551;50.478;19.378;2022-09-21T06:31:12;98405.08;;;9.30;84.14
53526;BME280;40551;50.478;19.378;2022-09-21T06:33:40;98405.45;;;9.31;83.95
53526;BME280;40551;50.478;19.378;2022-09-21T06:36:16;98406.73;;;9.35;84.09
53526;BME280;40551;50.478;19.378;2022-09-21T06:38:44;98407.10;;;9.40;84.12
53526;BME280;40551;50.478;19.378;2022-09-21T06:41:12;98410.67;;;9.45;83.92
53526;BME280;40551;50.478;19.378;2022-09-21T06:43:47;98416.30;;;9.51;84.33
53526;BME280;40551;50.478;19.378;2022-09-21T06:46:15;98413.69;;;9.56;84.40
53526;BME280;40551;50.478;19.378;2022-09-21T06:48:43;98413.04;;;9.60;84.15
53526;BME280;40551;50.478;19.378;2022-09-21T06:51:11;98414.27;;;9.64;84.00
53526;BME280;40551;50.478;19.378;2022-09-21T06:53:39;98420.04;;;9.66;83.94
53526;BME280;40551;50.478;19.378;2022-09-21T06:56:10;98420.15;;;9.67;83.75
53526;BME280;40551;50.478;19.378;2022-09-21T06:58:38;98424.36;;;9.68;83.83
53526;BME280;40551;50.478;19.378;2022-09-21T07:01:07;98430.27;;;9.68;83.67
53526;BME280;40551;50.478;19.378;2022-09-21T07:03:37;98430.86;;;9.69;83.68
53526;BME280;40551;50.478;19.378;2022-09-21T07:06:07;98433.91;;;9.70;83.55
53526;BME280;40551;50.478;19.378;2022-09-21T07:08:35;98433.79;;;9.70;83.53
53526;BME280;40551;50.478;19.378;2022-09-21T07:11:23;98437.92;;;9.72;83.65
53526;BME280;40551;50.478;19.378;2022-09-21T07:13:51;98439.19;;;9.76;83.92
53526;BME280;40551;50.478;19.378;2022-09-21T07:16:19;98440.42;;;9.78;83.66
53526;BME280;40551;50.478;19.378;2022-09-21T07:18:47;98439.30;;;9.82;83.75
53526;BME280;40551;50.478;19.378;2022-09-21T07:21:16;98441.20;;;9.88;83.62
53526;BME280;40551;50.478;19.378;2022-09-21T07:23:44;98444.59;;;9.94;83.78
53526;BME280;40551;50.478;19.378;2022-09-21T07:26:13;98446.91;;;9.95;83.68
53526;BME280;40551;50.478;19.378;2022-09-21T07:28:41;98449.99;;;9.98;83.67
53526;BME280;40551;50.478;19.378;2022-09-21T07:31:11;98457.86;;;9.99;83.39
53526;BME280;40551;50.478;19.378;2022-09-21T07:33:41;98462.15;;;9.99;83.32
53526;BME280;40551;50.478;19.378;2022-09-21T07:36:10;98463.13;;;10.01;83.32
53526;BME280;40551;50.478;19.378;2022-09-21T07:38:40;98458.20;;;10.04;83.62
53526;BME280;40551;50.478;19.378;2022-09-21T07:41:10;98457.27;;;10.07;83.46
53526;BME280;40551;50.478;19.378;2022-09-21T07:43:39;98458.41;;;10.11;83.48
53526;BME280;40551;50.478;19.378;2022-09-21T07:46:09;98458.80;;;10.12;83.41
53526;BME280;40551;50.478;19.378;2022-09-21T07:48:38;98462.45;;;10.16;83.36
53526;BME280;40551;50.478;19.378;2022-09-21T07:51:08;98464.73;;;10.21;83.38
53526;BME280;40551;50.478;19.378;2022-09-21T07:53:39;98464.59;;;10.25;83.25
53526;BME280;40551;50.478;19.378;2022-09-21T07:56:08;98462.33;;;10.30;83.31
53526;BME280;40551;50.478;19.378;2022-09-21T07:58:37;98464.88;;;10.35;83.32
53526;BME280;40551;50.478;19.378;2022-09-21T08:01:25;98466.77;;;10.40;83.39
53526;BME280;40551;50.478;19.378;2022-09-21T08:03:54;98461.97;;;10.41;83.19
53526;BME280;40551;50.478;19.378;2022-09-21T08:06:23;98466.05;;;10.42;82.98
53526;BME280;40551;50.478;19.378;2022-09-21T08:08:52;98470.44;;;10.39;82.55
53526;BME280;40551;50.478;19.378;2022-09-21T08:11:26;98469.37;;;10.37;82.39
53526;BME280;40551;50.478;19.378;2022-09-21T08:13:56;98472.63;;;10.33;82.43
53526;BME280;40551;50.478;19.378;2022-09-21T08:16:25;98474.81;;;10.32;82.63
53526;BME280;40551;50.478;19.378;2022-09-21T08:18:54;98475.85;;;10.32;82.68
53526;BME280;40551;50.478;19.378;2022-09-21T08:21:22;98479.30;;;10.30;82.11
53526;BME280;40551;50.478;19.378;2022-09-21T08:23:50;98478.73;;;10.26;82.12
53526;BME280;40551;50.478;19.378;2022-09-21T08:26:19;98479.67;;;10.25;82.08
53526;BME280;40551;50.478;19.378;2022-09-21T08:28:49;98480.19;;;10.25;82.54
53526;BME280;40551;50.478;19.378;2022-09-21T08:31:20;98481.75;;;10.25;82.38
53526;BME280;40551;50.478;19.378;2022-09-21T08:33:48;98485.33;;;10.26;82.51
53526;BME280;40551;50.478;19.378;2022-09-21T08:36:17;98485.52;;;10.32;82.98
53526;BME280;40551;50.478;19.378;2022-09-21T08:38:46;98485.02;;;10.41;82.95
53526;BME280;40551;50.478;19.378;2022-09-21T08:41:16;98488.61;;;10.47;82.88
53526;BME280;40551;50.478;19.378;2022-09-21T08:43:50;98486.04;;;10.51;82.92
53526;BME280;40551;50.478;19.378;2022-09-21T08:46:22;98488.73;;;10.49;82.43
53526;BME280;40551;50.478;19.378;2022-09-21T08:48:57;98489.69;;;10.49;82.51
53526;BME280;40551;50.478;19.378;2022-09-21T08:51:29;98493.94;;;10.50;82.70
53526;BME280;40551;50.478;19.378;2022-09-21T08:54:02;98493.77;;;10.50;82.25
53526;BME280;40551;50.478;19.378;2022-09-21T08:56:33;98496.39;;;10.45;82.09
53526;BME280;40551;50.478;19.378;2022-09-21T08:59:23;98493.98;;;10.40;81.87
53526;BME280;40551;50.478;19.378;2022-09-21T09:01:57;98493.02;;;10.34;82.05
53526;BME280;40551;50.478;19.378;2022-09-21T09:04:37;98489.85;;;10.30;82.28
53526;BME280;40551;50.478;19.378;2022-09-21T09:07:20;98489.38;;;10.30;82.42
53526;BME280;40551;50.478;19.378;2022-09-21T09:10:04;98490.75;;;10.32;82.57
53526;BME280;40551;50.478;19.378;2022-09-21T09:12:45;98492.99;;;10.32;82.46
53526;BME280;40551;50.478;19.378;2022-09-21T09:15:29;98486.89;;;10.31;82.59
53526;BME280;40551;50.478;19.378;2022-09-21T09:18:06;98490.96;;;10.34;82.74
53526;BME280;40551;50.478;19.378;2022-09-21T09:23:20;98491.20;;;10.54;82.76
53526;BME280;40551;50.478;19.378;2022-09-21T09:26:00;98492.80;;;10.57;82.57
53526;BME280;40551;50.478;19.378;2022-09-21T09:28:37;98493.42;;;10.58;82.44
53526;BME280;40551;50.478;19.378;2022-09-21T09:31:15;98498.55;;;10.59;82.26
53526;BME280;40551;50.478;19.378;2022-09-21T09:33:54;98495.52;;;10.60;82.35
53526;BME280;40551;50.478;19.378;2022-09-21T09:36:28;98496.14;;;10.64;82.50
53526;BME280;40551;50.478;19.378;2022-09-21T09:39:22;98492.41;;;10.64;82.34
53526;BME280;40551;50.478;19.378;2022-09-21T09:42:20;98489.64;;;10.67;82.55
53526;BME280;40551;50.478;19.378;2022-09-21T09:45:21;98496.20;;;10.67;82.27
53526;BME280;40551;50.478;19.378;2022-09-21T09:48:07;98494.30;;;10.69;82.30
53526;BME280;40551;50.478;19.378;2022-09-21T09:50:42;98495.01;;;10.74;82.33
53526;BME280;40551;50.478;19.378;2022-09-21T09:53:16;98488.29;;;10.73;82.09
53526;BME280;40551;50.478;19.378;2022-09-21T09:55:50;98495.69;;;10.70;81.92
53526;BME280;40551;50.478;19.378;2022-09-21T09:58:26;98492.39;;;10.72;82.38
53526;BME280;40551;50.478;19.378;2022-09-21T10:01:00;98491.41;;;10.75;82.33
53526;BME280;40551;50.478;19.378;2022-09-21T10:03:30;98492.77;;;10.76;82.00
53526;BME280;40551;50.478;19.378;2022-09-21T10:06:02;98488.82;;;10.68;82.19
53526;BME280;40551;50.478;19.378;2022-09-21T10:08:43;98495.13;;;10.68;82.36
53526;BME280;40551;50.478;19.378;2022-09-21T10:11:16;98498.38;;;10.68;82.33
53526;BME280;40551;50.478;19.378;2022-09-21T10:13:49;98493.87;;;10.70;82.49
53526;BME280;40551;50.478;19.378;2022-09-21T10:16:23;98494.82;;;10.76;82.57
53526;BME280;40551;50.478;19.378;2022-09-21T10:18:56;98490.67;;;10.80;82.29
53526;BME280;40551;50.478;19.378;2022-09-21T10:21:35;98490.02;;;10.84;82.37
53526;BME280;40551;50.478;19.378;2022-09-21T10:24:17;98487.41;;;10.88;82.23
53526;BME280;40551;50.478;19.378;2022-09-21T10:26:52;98486.95;;;10.95;82.36
53526;BME280;40551;50.478;19.378;2022-09-21T10:29:39;98485.23;;;11.05;82.43
53526;BME280;40551;50.478;19.378;2022-09-21T10:32:22;98486.60;;;11.18;82.52
53526;BME280;40551;50.478;19.378;2022-09-21T10:35:14;98484.25;;;11.35;82.79
53526;BME280;40551;50.478;19.378;2022-09-21T10:37:48;98483.35;;;11.54;82.53
53526;BME280;40551;50.478;19.378;2022-09-21T10:40:39;98485.63;;;11.73;81.63
53526;BME280;40551;50.478;19.378;2022-09-21T10:43:24;98482.46;;;11.77;80.71
53526;BME280;40551;50.478;19.378;2022-09-21T10:46:04;98476.42;;;11.86;80.52
53526;BME280;40551;50.478;19.378;2022-09-21T10:48:35;98478.76;;;11.99;80.71
53526;BME280;40551;50.478;19.378;2022-09-21T10:51:25;98473.00;;;12.18;80.97
53526;BME280;40551;50.478;19.378;2022-09-21T10:53:58;98476.44;;;12.41;80.68
53526;BME280;40551;50.478;19.378;2022-09-21T10:56:30;98475.52;;;12.60;80.11
53526;BME280;40551;50.478;19.378;2022-09-21T10:59:10;98471.31;;;12.68;78.59
53526;BME280;40551;50.478;19.378;2022-09-21T11:01:45;98468.42;;;12.63;78.69
53526;BME280;40551;50.478;19.378;2022-09-21T11:04:22;98466.50;;;12.70;78.38
53526;BME280;40551;50.478;19.378;2022-09-21T11:07:00;98463.49;;;12.76;78.19
53526;BME280;40551;50.478;19.378;2022-09-21T11:09:37;98466.86;;;12.80;77.83
53526;BME280;40551;50.478;19.378;2022-09-21T11:12:20;98469.55;;;12.83;77.57
53526;BME280;40551;50.478;19.378;2022-09-21T11:14:59;98470.50;;;12.86;77.36
53526;BME280;40551;50.478;19.378;2022-09-21T11:17:37;98471.02;;;12.92;77.25
53526;BME280;40551;50.478;19.378;2022-09-21T11:20:20;98469.02;;;13.03;77.43
53526;BME280;40551;50.478;19.378;2022-09-21T11:22:58;98462.77;;;13.14;77.03
53526;BME280;40551;50.478;19.378;2022-09-21T11:25:39;98455.09;;;13.22;77.18
53526;BME280;40551;50.478;19.378;2022-09-21T11:28:21;98458.99;;;13.31;76.95
53526;BME280;40551;50.478;19.378;2022-09-21T11:31:13;98462.27;;;13.38;76.02
53526;BME280;40551;50.478;19.378;2022-09-21T11:33:59;98458.80;;;13.40;76.07
53526;BME280;40551;50.478;19.378;2022-09-21T11:36:41;98462.08;;;13.49;76.26
53526;BME280;40551;50.478;19.378;2022-09-21T11:39:23;98456.95;;;13.62;76.79
53526;BME280;40551;50.478;19.378;2022-09-21T11:42:13;98453.39;;;13.74;76.27
53526;BME280;40551;50.478;19.378;2022-09-21T11:44:53;98453.44;;;13.83;75.99
53526;BME280;40551;50.478;19.378;2022-09-21T11:47:49;98456.33;;;13.95;75.83
53526;BME280;40551;50.478;19.378;2022-09-21T11:50:35;98455.42;;;13.98;74.85
53526;BME280;40551;50.478;19.378;2022-09-21T11:53:20;98449.58;;;13.87;74.18
53526;BME280;40551;50.478;19.378;2022-09-21T11:56:12;98449.02;;;13.80;74.01
53526;BME280;40551;50.478;19.378;2022-09-21T11:58:52;98446.84;;;13.70;73.21
53526;BME280;40551;50.478;19.378;2022-09-21T12:01:40;98441.77;;;13.70;73.17
53526;BME280;40551;50.478;19.378;2022-09-21T12:04:25;98438.67;;;13.73;73.23
53526;BME280;40551;50.478;19.378;2022-09-21T12:07:10;98437.98;;;13.81;73.67
53526;BME280;40551;50.478;19.378;2022-09-21T12:10:05;98440.79;;;13.92;74.28
53526;BME280;40551;50.478;19.378;2022-09-21T12:12:47;98435.63;;;13.95;72.53
53526;BME280;40551;50.478;19.378;2022-09-21T12:15:25;98431.81;;;14.00;72.91
53526;BME280;40551;50.478;19.378;2022-09-21T12:18:04;98427.91;;;14.12;73.05
53526;BME280;40551;50.478;19.378;2022-09-21T12:20:45;98421.23;;;14.24;72.42
53526;BME280;40551;50.478;19.378;2022-09-21T12:23:20;98420.98;;;14.27;71.88
53526;BME280;40551;50.478;19.378;2022-09-21T12:25:56;98425.83;;;14.23;71.63
53526;BME280;40551;50.478;19.378;2022-09-21T12:28:30;98426.67;;;14.18;70.60
53526;BME280;40551;50.478;19.378;2022-09-21T12:31:10;98429.19;;;14.10;70.13
53526;BME280;40551;50.478;19.378;2022-09-21T12:33:47;98425.24;;;13.96;69.23
53526;BME280;40551;50.478;19.378;2022-09-21T12:36:23;98426.27;;;13.81;69.26
53526;BME280;40551;50.478;19.378;2022-09-21T12:38:59;98428.98;;;13.72;69.46
53526;BME280;40551;50.478;19.378;2022-09-21T12:41:36;98420.29;;;13.76;69.72
53526;BME280;40551;50.478;19.378;2022-09-21T12:44:18;98421.83;;;13.76;68.61
53526;BME280;40551;50.478;19.378;2022-09-21T12:46:56;98421.85;;;13.74;67.68
53526;BME280;40551;50.478;19.378;2022-09-21T12:49:45;98418.89;;;13.68;67.18
53526;BME280;40551;50.478;19.378;2022-09-21T12:52:21;98417.14;;;13.68;67.82
53526;BME280;40551;50.478;19.378;2022-09-21T12:55:00;98417.58;;;13.77;67.81
53526;BME280;40551;50.478;19.378;2022-09-21T12:57:44;98416.87;;;13.90;68.46
53526;BME280;40551;50.478;19.378;2022-09-21T13:00:41;98419.45;;;14.00;68.32
53526;BME280;40551;50.478;19.378;2022-09-21T13:03:24;98433.92;;;13.98;66.76
53526;BME280;40551;50.478;19.378;2022-09-21T13:06:37;98432.83;;;13.80;66.23
53526;BME280;40551;50.478;19.378;2022-09-21T13:09:18;98429.29;;;13.60;66.58
53526;BME280;40551;50.478;19.378;2022-09-21T13:11:56;98429.34;;;13.45;66.29
53526;BME280;40551;50.478;19.378;2022-09-21T13:14:33;98433.16;;;13.32;66.16
53526;BME280;40551;50.478;19.378;2022-09-21T13:17:14;98429.45;;;13.21;66.85
53526;BME280;40551;50.478;19.378;2022-09-21T13:19:59;98423.05;;;13.17;67.89
53526;BME280;40551;50.478;19.378;2022-09-21T13:22:33;98420.42;;;13.17;68.24
53526;BME280;40551;50.478;19.378;2022-09-21T13:25:19;98421.94;;;13.19;68.90
53526;BME280;40551;50.478;19.378;2022-09-21T13:28:05;98419.36;;;13.19;68.84
53526;BME280;40551;50.478;19.378;2022-09-21T13:31:27;98425.55;;;13.18;69.29
53526;BME280;40551;50.478;19.378;2022-09-21T13:34:21;98419.45;;;13.20;69.51
53526;BME280;40551;50.478;19.378;2022-09-21T13:37:22;98419.08;;;13.20;69.85
53526;BME280;40551;50.478;19.378;2022-09-21T13:43:45;98417.58;;;13.23;70.44
53526;BME280;40551;50.478;19.378;2022-09-21T13:46:52;98414.05;;;13.18;70.40
53526;BME280;40551;50.478;19.378;2022-09-21T13:49:32;98411.46;;;13.17;70.54
53526;BME280;40551;50.478;19.378;2022-09-21T13:52:06;98409.70;;;13.21;70.71